ADDS METAR Data INFO
IDs: Format: Raw Decoded Include TAF

Data at: 1112 UTC 13 Dec 2017

KEMP 131053Z AUTO 22008KT 10SM CLR 03/M04 A2976 RMK AO2 SLP085 T00331044
KEMP 130953Z AUTO 22007KT 10SM CLR 04/M04 A2979 RMK AO2 SLP092 T00441039
KEMP 130853Z AUTO 20009KT 10SM CLR 03/M03 A2982 RMK AO2 SLP105 T00331033 56038
KEMP 130753Z AUTO 21007KT 10SM CLR 02/M03 A2986 RMK AO2 SLP119 T00171033
KEMP 130653Z AUTO 00000KT 10SM CLR 01/M03 A2989 RMK AO2 SLP130 T00111033
KEMP 130553Z AUTO 14004KT 10SM CLR 01/M03 A2994 RMK AO2 SLP147 T00111033 10033 21006 400831056 56028
KEMP 130453Z AUTO 15003KT 10SM CLR 02/M03 A2997 RMK AO2 SLP157 T00171033
KEMP 130353Z AUTO 18009KT 10SM CLR 01/M03 A2999 RMK AO2 SLP168 T00111033
KEMP 130253Z AUTO 20009KT 10SM CLR 02/M03 A3003 RMK AO2 SLP180 T00171028 58030
KEMP 130153Z AUTO 18009KT 10SM CLR 02/M03 A3007 RMK AO2 SLP198 T00171033
KEMP 130053Z AUTO 19008KT 10SM CLR 02/M03 A3008 RMK AO2 SLP202 T00171033
KEMP 122353Z AUTO 20008KT 10SM CLR 02/M04 A3012 RMK AO2 SLP212 T00171044 10083 20017 56028
KEMP 122253Z AUTO 22006KT 10SM CLR 06/M03 A3014 RMK AO2 SLP217 T00611033
KEMP 122153Z AUTO 25008KT 10SM CLR 08/M03 A3016 RMK AO2 SLP224 T00831028
KEMP 122053Z AUTO 26007KT 10SM CLR 08/M03 A3020 RMK AO2 SLP237 T00831028 56039
KEMP 121953Z AUTO 27007KT 240V300 10SM FEW038 07/M03 A3024 RMK AO2 SLP249 T00721028
KEMP 121853Z AUTO 33010KT 10SM FEW035 07/M03 A3027 RMK AO2 SLP260 T00671033
KEMP 121753Z AUTO 32010KT 10SM BKN033 05/M04 A3032 RMK AO2 SLP277 T00501044 10056 21056 58018
KEMP 121653Z AUTO 35007KT 10SM CLR 03/M06 A3037 RMK AO2 SLP293 T00281061
KEMP 121553Z AUTO 32005KT 10SM CLR 00/M07 A3038 RMK AO2 SLP299 T00001067
KEMP 121453Z AUTO 29005KT 10SM CLR M03/M07 A3038 RMK AO2 SLP299 T10281067 52008
KEMP 121353Z AUTO 31004KT 10SM CLR M06/M08 A3037 RMK AO2 SLP297 T10561078
KEMP 121253Z AUTO 31005KT 10SM CLR M04/M07 A3036 RMK AO2 SLP293 T10391067
KEMP 121153Z AUTO 32006KT 10SM CLR M03/M07 A3035 RMK AO2 SLP289 T10331067 10033 21039 53000
KEMP 121053Z AUTO 32008KT 10SM CLR M02/M07 A3034 RMK AO2 SLP285 T10221067
KEMP 120953Z AUTO 32010KT 10SM CLR M01/M06 A3036 RMK AO2 SLP288 T10111056
KEMP 120853Z AUTO 32010KT 10SM CLR M01/M05 A3035 RMK AO2 SLP286 T10061050 51013
KEMP 120753Z AUTO 33009KT 10SM CLR 01/M04 A3034 RMK AO2 SLP283 T00061044
KEMP 120653Z AUTO 33012G19KT 10SM CLR 02/M04 A3033 RMK AO2 SLP277 T00221039
KEMP 120553Z AUTO 33018G23KT 10SM CLR 03/M03 A3032 RMK AO2 PK WND 34031/0517 SLP271 T00331033 10094 20033 401500028 51022
KEMP 120453Z AUTO 34020G26KT 10SM CLR 04/M03 A3029 RMK AO2 PK WND 34032/0443 SLP264 T00441028
KEMP 120353Z AUTO 33017G24KT 10SM FEW037 BKN047 06/M02 A3027 RMK AO2 PK WND 33028/0335 SLP258 T00561017
KEMP 120253Z AUTO 33016G29KT 10SM BKN045 06/M01 A3025 RMK AO2 PK WND 34032/0157 SLP251 T00611006 53035
KEMP 120153Z AUTO 33024G31KT 10SM CLR 07/M02 A3020 RMK AO2 PK WND 33031/0153 SLP235 T00721017
KEMP 120053Z AUTO 33018G26KT 10SM BKN070 08/M03 A3017 RMK AO2 PK WND 33032/2357 SLP225 T00831028
KEMP 112353Z AUTO 34020G29KT 10SM BKN060 09/M03 A3014 RMK AO2 PK WND 32033/2258 SLP213 T00941033 10150 20094 51024